気象予報士の航空気象 東京 都心 雪の予報

*All archives   *Admin

2011.02.11 (Fri)

東京 都心 雪の予報

RJTT 101444Z 1015/1118 36010KT 9999 FEW009 BKN015 BKN020
BECMG 1017/1019 4000 -SN
TEMPO 1019/1024 1200 -SN FEW004 BKN006 BKN010
BECMG 1103/1106 6000 -SNRA
TEMPO 1106/1112 4000 -SN BKN008 BKN012



東京でも雪の予報。


羽田は雪に弱い。


連休です。


飛行機乱れると、たいへん。


鉄道も道路も乱れそう。


計画のない方は動かないのが大吉。


すでに外出を余儀なくされている方は、天気を調べ、代替手段を常に考えるのが吉。



 
ブログランキングに参加しています。
にほんブログ村 環境ブログ 天気・気象学へ
にほんブログ村
応援クリックをおねがします。


以下、アフィリエイトサイトです。










スポンサーサイト
00:49  |  気象・天気  |  TB(0)  |  CM(0)  |  EDIT  |  Top↑

コメントを投稿する


 管理者だけに表示  (非公開コメント投稿可能)

▲PageTop

この記事のトラックバックURL

→http://weathereucalyptus.blog115.fc2.com/tb.php/553-a0af20ac
この記事にトラックバックする(FC2ブログユーザー)

この記事へのトラックバック

▲PageTop

 | BLOGTOP |